Terminal Aerodrome Forecast
Issued by NWS

Home | Current Version | Previous Version | Text Only | Print | Product List | Glossary On
Versions: 1 2 3 4 5 6 7 8 9 10 11 12 13 14 15 16 17 18 19 20
536
FTUS46 KPDT 240536
TAFBDN
TAF
KBDN 240536Z 2406/2506 20010G17KT P6SM -SHRA BKN050 OVC090
     FM241200 19010KT P6SM -RA SCT030 OVC045
     FM241800 23012G18KT P6SM VCSH SCT045 BKN070
     FM250100 21005KT P6SM SCT060 BKN100=

USA.gov is the U.S. government's official web portal to all federal, state and local government web resources and services.